sensor_id;sensor_type;location;lat;lon;timestamp;pressure;altitude;pressure_sealevel;temperature;humidity
24280;BME280;12395;42.808;23.408;2023-02-14T00:01:15;96287.31;;;-3.01;100.00
24280;BME280;12395;42.808;23.408;2023-02-14T00:03:40;96289.72;;;-2.98;100.00
24280;BME280;12395;42.808;23.408;2023-02-14T00:06:12;96298.50;;;-2.86;100.00
24280;BME280;12395;42.808;23.408;2023-02-14T00:08:38;96310.09;;;-2.92;100.00
24280;BME280;12395;42.808;23.408;2023-02-14T00:11:06;96306.66;;;-2.92;100.00
24280;BME280;12395;42.808;23.408;2023-02-14T00:13:32;96307.22;;;-2.87;100.00
24280;BME280;12395;42.808;23.408;2023-02-14T00:15:58;96300.63;;;-2.93;100.00
24280;BME280;12395;42.808;23.408;2023-02-14T00:18:23;96302.69;;;-2.98;100.00
24280;BME280;12395;42.808;23.408;2023-02-14T00:21:09;96304.81;;;-2.90;100.00
24280;BME280;12395;42.808;23.408;2023-02-14T00:23:34;96307.78;;;-2.96;100.00
24280;BME280;12395;42.808;23.408;2023-02-14T00:25:59;96301.84;;;-2.98;100.00
24280;BME280;12395;42.808;23.408;2023-02-14T00:28:25;96307.34;;;-2.89;100.00
24280;BME280;12395;42.808;23.408;2023-02-14T00:30:50;96297.69;;;-2.87;100.00
24280;BME280;12395;42.808;23.408;2023-02-14T00:33:16;96294.66;;;-2.93;100.00
24280;BME280;12395;42.808;23.408;2023-02-14T00:35:41;96285.44;;;-2.99;100.00
24280;BME280;12395;42.808;23.408;2023-02-14T00:38:06;96292.50;;;-3.01;100.00
24280;BME280;12395;42.808;23.408;2023-02-14T00:40:32;96298.16;;;-2.94;100.00
24280;BME280;12395;42.808;23.408;2023-02-14T00:42:57;96297.97;;;-2.91;100.00
24280;BME280;12395;42.808;23.408;2023-02-14T00:45:22;96297.78;;;-2.88;100.00
24280;BME280;12395;42.808;23.408;2023-02-14T00:47:48;96289.34;;;-2.92;100.00
24280;BME280;12395;42.808;23.408;2023-02-14T00:50:13;96269.91;;;-2.99;100.00
24280;BME280;12395;42.808;23.408;2023-02-14T00:52:39;96284.44;;;-2.96;100.00
24280;BME280;12395;42.808;23.408;2023-02-14T00:55:04;96289.09;;;-2.87;100.00
24280;BME280;12395;42.808;23.408;2023-02-14T00:57:30;96284.75;;;-2.87;100.00
24280;BME280;12395;42.808;23.408;2023-02-14T00:59:55;96280.28;;;-2.85;100.00
24280;BME280;12395;42.808;23.408;2023-02-14T01:02:21;96263.53;;;-2.93;100.00
24280;BME280;12395;42.808;23.408;2023-02-14T01:04:46;96255.81;;;-2.95;100.00
24280;BME280;12395;42.808;23.408;2023-02-14T01:07:11;96267.31;;;-2.85;100.00
24280;BME280;12395;42.808;23.408;2023-02-14T01:09:37;96252.78;;;-2.87;100.00
24280;BME280;12395;42.808;23.408;2023-02-14T01:12:02;96273.03;;;-2.80;100.00
24280;BME280;12395;42.808;23.408;2023-02-14T01:14:28;96269.06;;;-2.71;100.00
24280;BME280;12395;42.808;23.408;2023-02-14T01:16:53;96263.25;;;-2.75;100.00
24280;BME280;12395;42.808;23.408;2023-02-14T01:19:19;96259.06;;;-2.77;100.00
24280;BME280;12395;42.808;23.408;2023-02-14T01:21:44;96248.16;;;-2.82;100.00
24280;BME280;12395;42.808;23.408;2023-02-14T01:24:11;96251.19;;;-2.76;100.00
24280;BME280;12395;42.808;23.408;2023-02-14T01:26:36;96253.41;;;-2.70;100.00
24280;BME280;12395;42.808;23.408;2023-02-14T01:29:03;96247.56;;;-2.73;100.00
24280;BME280;12395;42.808;23.408;2023-02-14T01:31:31;96249.16;;;-2.71;100.00
24280;BME280;12395;42.808;23.408;2023-02-14T01:33:57;96244.25;;;-2.61;100.00
24280;BME280;12395;42.808;23.408;2023-02-14T01:36:26;96230.63;;;-2.79;100.00
24280;BME280;12395;42.808;23.408;2023-02-14T01:38:58;96236.56;;;-2.77;100.00
24280;BME280;12395;42.808;23.408;2023-02-14T01:41:25;96240.63;;;-2.73;100.00
24280;BME280;12395;42.808;23.408;2023-02-14T01:46:23;96231.56;;;-2.66;100.00
24280;BME280;12395;42.808;23.408;2023-02-14T01:48:50;96211.38;;;-2.75;100.00
24280;BME280;12395;42.808;23.408;2023-02-14T01:51:17;96217.56;;;-2.77;100.00
24280;BME280;12395;42.808;23.408;2023-02-14T01:53:43;96204.25;;;-2.85;100.00
24280;BME280;12395;42.808;23.408;2023-02-14T01:56:12;96242.31;;;-2.72;100.00
24280;BME280;12395;42.808;23.408;2023-02-14T01:58:42;96231.38;;;-2.77;100.00
24280;BME280;12395;42.808;23.408;2023-02-14T02:01:12;96227.09;;;-2.78;100.00
24280;BME280;12395;42.808;23.408;2023-02-14T02:03:51;96220.00;;;-2.74;100.00
24280;BME280;12395;42.808;23.408;2023-02-14T02:06:22;96228.28;;;-2.69;100.00
24280;BME280;12395;42.808;23.408;2023-02-14T02:09:03;96224.06;;;-2.70;100.00
24280;BME280;12395;42.808;23.408;2023-02-14T02:11:31;96213.47;;;-2.67;100.00
24280;BME280;12395;42.808;23.408;2023-02-14T02:13:57;96215.16;;;-2.66;100.00
24280;BME280;12395;42.808;23.408;2023-02-14T02:22:33;96207.03;;;-2.74;100.00
24280;BME280;12395;42.808;23.408;2023-02-14T02:41:12;96180.53;;;-2.65;100.00
24280;BME280;12395;42.808;23.408;2023-02-14T02:44:16;96165.38;;;-2.85;100.00
24280;BME280;12395;42.808;23.408;2023-02-14T02:47:04;96187.41;;;-2.78;100.00
24280;BME280;12395;42.808;23.408;2023-02-14T02:58:24;96201.56;;;-2.84;100.00
24280;BME280;12395;42.808;23.408;2023-02-14T03:00:52;96195.75;;;-2.87;100.00
24280;BME280;12395;42.808;23.408;2023-02-14T03:03:20;96188.69;;;-2.85;100.00
24280;BME280;12395;42.808;23.408;2023-02-14T03:06:06;96180.56;;;-2.93;100.00
24280;BME280;12395;42.808;23.408;2023-02-14T03:08:31;96178.44;;;-3.01;100.00
24280;BME280;12395;42.808;23.408;2023-02-14T03:10:58;96179.91;;;-2.97;100.00
24280;BME280;12395;42.808;23.408;2023-02-14T03:20:28;96176.13;;;-2.91;100.00
24280;BME280;12395;42.808;23.408;2023-02-14T03:22:52;96157.50;;;-2.98;100.00
24280;BME280;12395;42.808;23.408;2023-02-14T03:28:15;96161.69;;;-2.95;100.00
24280;BME280;12395;42.808;23.408;2023-02-14T03:33:47;96172.22;;;-2.98;100.00
24280;BME280;12395;42.808;23.408;2023-02-14T03:36:26;96157.97;;;-2.91;100.00
24280;BME280;12395;42.808;23.408;2023-02-14T03:39:04;96140.56;;;-3.03;100.00
24280;BME280;12395;42.808;23.408;2023-02-14T03:41:36;96141.03;;;-2.97;100.00
24280;BME280;12395;42.808;23.408;2023-02-14T03:44:06;96150.94;;;-2.89;100.00
24280;BME280;12395;42.808;23.408;2023-02-14T03:47:05;96152.22;;;-2.96;100.00
24280;BME280;12395;42.808;23.408;2023-02-14T03:49:37;96134.41;;;-3.15;100.00
24280;BME280;12395;42.808;23.408;2023-02-14T03:52:06;96136.88;;;-3.14;100.00
24280;BME280;12395;42.808;23.408;2023-02-14T03:54:34;96133.56;;;-3.16;100.00
24280;BME280;12395;42.808;23.408;2023-02-14T03:57:19;96130.88;;;-3.14;100.00
24280;BME280;12395;42.808;23.408;2023-02-14T03:59:46;96127.00;;;-3.21;100.00
24280;BME280;12395;42.808;23.408;2023-02-14T04:04:45;96136.16;;;-3.16;100.00
24280;BME280;12395;42.808;23.408;2023-02-14T04:07:14;96146.41;;;-3.14;100.00
24280;BME280;12395;42.808;23.408;2023-02-14T04:09:41;96142.81;;;-3.12;100.00
24280;BME280;12395;42.808;23.408;2023-02-14T04:12:07;96145.50;;;-3.13;100.00
24280;BME280;12395;42.808;23.408;2023-02-14T04:14:33;96134.84;;;-3.23;100.00
24280;BME280;12395;42.808;23.408;2023-02-14T04:16:58;96122.56;;;-3.33;100.00
24280;BME280;12395;42.808;23.408;2023-02-14T04:19:42;96115.28;;;-3.41;100.00
24280;BME280;12395;42.808;23.408;2023-02-14T04:22:07;96091.94;;;-3.55;100.00
24280;BME280;12395;42.808;23.408;2023-02-14T04:24:33;96112.13;;;-3.46;100.00
24280;BME280;12395;42.808;23.408;2023-02-14T04:26:58;96098.91;;;-3.55;100.00
24280;BME280;12395;42.808;23.408;2023-02-14T04:29:44;96124.88;;;-3.43;100.00
24280;BME280;12395;42.808;23.408;2023-02-14T04:32:16;96131.00;;;-3.30;100.00
24280;BME280;12395;42.808;23.408;2023-02-14T04:34:43;96122.28;;;-3.29;100.00
24280;BME280;12395;42.808;23.408;2023-02-14T04:37:08;96090.09;;;-3.53;100.00
24280;BME280;12395;42.808;23.408;2023-02-14T04:39:34;96099.66;;;-3.53;100.00
24280;BME280;12395;42.808;23.408;2023-02-14T04:42:00;96111.75;;;-3.40;100.00
24280;BME280;12395;42.808;23.408;2023-02-14T04:44:25;96100.06;;;-3.33;100.00
24280;BME280;12395;42.808;23.408;2023-02-14T04:46:51;96095.00;;;-3.34;100.00
24280;BME280;12395;42.808;23.408;2023-02-14T04:49:17;96091.19;;;-3.29;100.00
24280;BME280;12395;42.808;23.408;2023-02-14T04:51:42;96111.25;;;-3.18;100.00
24280;BME280;12395;42.808;23.408;2023-02-14T04:54:08;96076.03;;;-3.35;100.00
24280;BME280;12395;42.808;23.408;2023-02-14T04:56:33;96068.28;;;-3.49;100.00
24280;BME280;12395;42.808;23.408;2023-02-14T04:58:59;96107.41;;;-3.25;100.00
24280;BME280;12395;42.808;23.408;2023-02-14T05:01:24;96088.81;;;-3.32;100.00
24280;BME280;12395;42.808;23.408;2023-02-14T05:03:50;96100.06;;;-3.33;100.00
24280;BME280;12395;42.808;23.408;2023-02-14T05:06:15;96096.75;;;-3.35;100.00
24280;BME280;12395;42.808;23.408;2023-02-14T05:08:41;96095.38;;;-3.40;100.00
24280;BME280;12395;42.808;23.408;2023-02-14T05:11:06;96091.59;;;-3.49;100.00
24280;BME280;12395;42.808;23.408;2023-02-14T05:13:32;96093.81;;;-3.57;100.00
24280;BME280;12395;42.808;23.408;2023-02-14T05:15:57;96085.84;;;-3.54;100.00
24280;BME280;12395;42.808;23.408;2023-02-14T05:18:23;96098.31;;;-3.46;100.00
24280;BME280;12395;42.808;23.408;2023-02-14T05:20:50;96090.28;;;-3.56;100.00
24280;BME280;12395;42.808;23.408;2023-02-14T05:23:15;96102.41;;;-3.56;100.00
24280;BME280;12395;42.808;23.408;2023-02-14T05:25:41;96084.84;;;-3.65;100.00
24280;BME280;12395;42.808;23.408;2023-02-14T05:28:07;96076.59;;;-3.72;100.00
24280;BME280;12395;42.808;23.408;2023-02-14T05:30:32;96089.94;;;-3.64;100.00
24280;BME280;12395;42.808;23.408;2023-02-14T05:32:59;96103.53;;;-3.60;100.00
24280;BME280;12395;42.808;23.408;2023-02-14T05:35:25;96086.88;;;-3.70;100.00
24280;BME280;12395;42.808;23.408;2023-02-14T05:37:51;96093.91;;;-3.58;100.00
24280;BME280;12395;42.808;23.408;2023-02-14T05:40:16;96081.06;;;-3.60;100.00
24280;BME280;12395;42.808;23.408;2023-02-14T05:42:42;96075.88;;;-3.60;100.00
24280;BME280;12395;42.808;23.408;2023-02-14T05:45:08;96086.75;;;-3.55;100.00
24280;BME280;12395;42.808;23.408;2023-02-14T05:47:33;96082.31;;;-3.53;100.00
24280;BME280;12395;42.808;23.408;2023-02-14T05:49:59;96083.44;;;-3.43;100.00
24280;BME280;12395;42.808;23.408;2023-02-14T05:52:24;96081.03;;;-3.32;100.00
24280;BME280;12395;42.808;23.408;2023-02-14T05:54:52;96090.81;;;-3.23;100.00
24280;BME280;12395;42.808;23.408;2023-02-14T05:57:17;96102.06;;;-3.09;100.00
24280;BME280;12395;42.808;23.408;2023-02-14T05:59:43;96093.94;;;-3.18;100.00
24280;BME280;12395;42.808;23.408;2023-02-14T06:02:08;96094.50;;;-3.13;100.00
24280;BME280;12395;42.808;23.408;2023-02-14T06:04:34;96100.13;;;-3.06;100.00
24280;BME280;12395;42.808;23.408;2023-02-14T06:06:59;96091.91;;;-3.13;100.00
24280;BME280;12395;42.808;23.408;2023-02-14T06:09:25;96101.59;;;-3.02;100.00
24280;BME280;12395;42.808;23.408;2023-02-14T06:11:50;96100.38;;;-2.96;100.00
24280;BME280;12395;42.808;23.408;2023-02-14T06:14:16;96104.66;;;-2.95;100.00
24280;BME280;12395;42.808;23.408;2023-02-14T06:16:42;96097.59;;;-2.93;100.00
24280;BME280;12395;42.808;23.408;2023-02-14T06:19:07;96101.81;;;-2.78;100.00
24280;BME280;12395;42.808;23.408;2023-02-14T06:21:32;96096.34;;;-2.74;100.00
24280;BME280;12395;42.808;23.408;2023-02-14T06:23:58;96108.41;;;-2.60;100.00
24280;BME280;12395;42.808;23.408;2023-02-14T06:26:23;96097.94;;;-2.59;100.00
24280;BME280;12395;42.808;23.408;2023-02-14T06:28:56;96096.72;;;-2.53;100.00
24280;BME280;12395;42.808;23.408;2023-02-14T06:31:22;96117.09;;;-2.35;100.00
24280;BME280;12395;42.808;23.408;2023-02-14T06:33:50;96119.66;;;-2.20;100.00
24280;BME280;12395;42.808;23.408;2023-02-14T06:36:16;96113.03;;;-2.12;100.00
24280;BME280;12395;42.808;23.408;2023-02-14T06:38:41;96115.72;;;-2.01;100.00
24280;BME280;12395;42.808;23.408;2023-02-14T06:41:08;96127.47;;;-1.83;100.00
24280;BME280;12395;42.808;23.408;2023-02-14T06:43:35;96115.53;;;-1.73;100.00
24280;BME280;12395;42.808;23.408;2023-02-14T06:46:01;96115.44;;;-1.59;100.00
24280;BME280;12395;42.808;23.408;2023-02-14T06:48:27;96110.25;;;-1.46;100.00
24280;BME280;12395;42.808;23.408;2023-02-14T06:50:52;96107.31;;;-1.29;100.00
24280;BME280;12395;42.808;23.408;2023-02-14T06:53:18;96093.31;;;-1.15;100.00
24280;BME280;12395;42.808;23.408;2023-02-14T06:55:44;96109.16;;;-0.82;100.00
24280;BME280;12395;42.808;23.408;2023-02-14T06:58:09;96096.63;;;-0.64;100.00
24280;BME280;12395;42.808;23.408;2023-02-14T07:00:35;96082.84;;;-0.54;100.00
24280;BME280;12395;42.808;23.408;2023-02-14T07:03:01;96089.19;;;-0.34;100.00
24280;BME280;12395;42.808;23.408;2023-02-14T07:05:26;96073.50;;;-0.22;100.00
24280;BME280;12395;42.808;23.408;2023-02-14T07:07:51;96073.78;;;-0.03;100.00
24280;BME280;12395;42.808;23.408;2023-02-14T07:10:17;96067.19;;;0.16;100.00
24280;BME280;12395;42.808;23.408;2023-02-14T07:12:42;96075.16;;;0.36;100.00
24280;BME280;12395;42.808;23.408;2023-02-14T07:15:10;96076.59;;;0.62;100.00
24280;BME280;12395;42.808;23.408;2023-02-14T07:17:36;96090.13;;;0.90;100.00
24280;BME280;12395;42.808;23.408;2023-02-14T07:20:02;96080.47;;;1.01;100.00
24280;BME280;12395;42.808;23.408;2023-02-14T07:22:27;96080.44;;;1.23;100.00
24280;BME280;12395;42.808;23.408;2023-02-14T07:24:53;96079.56;;;1.45;100.00
24280;BME280;12395;42.808;23.408;2023-02-14T07:27:18;96093.00;;;1.72;100.00
24280;BME280;12395;42.808;23.408;2023-02-14T07:29:43;96055.72;;;1.70;100.00
24280;BME280;12395;42.808;23.408;2023-02-14T07:32:09;96096.19;;;2.07;100.00
24280;BME280;12395;42.808;23.408;2023-02-14T07:34:34;96088.97;;;2.20;98.69
24280;BME280;12395;42.808;23.408;2023-02-14T07:37:00;96088.34;;;2.28;98.18
24280;BME280;12395;42.808;23.408;2023-02-14T07:39:26;96085.13;;;2.45;96.33
24280;BME280;12395;42.808;23.408;2023-02-14T07:41:51;96073.59;;;2.48;93.29
24280;BME280;12395;42.808;23.408;2023-02-14T07:44:17;96086.84;;;2.56;92.51
24280;BME280;12395;42.808;23.408;2023-02-14T07:46:42;96104.50;;;2.63;90.83
24280;BME280;12395;42.808;23.408;2023-02-14T07:49:07;96096.97;;;2.70;92.27
24280;BME280;12395;42.808;23.408;2023-02-14T07:51:33;96096.19;;;2.79;91.24
24280;BME280;12395;42.808;23.408;2023-02-14T07:53:58;96097.47;;;2.84;89.10
24280;BME280;12395;42.808;23.408;2023-02-14T07:56:24;96120.25;;;3.03;89.53
24280;BME280;12395;42.808;23.408;2023-02-14T07:58:49;96104.13;;;2.98;89.23
24280;BME280;12395;42.808;23.408;2023-02-14T08:01:15;96108.41;;;3.08;87.34
24280;BME280;12395;42.808;23.408;2023-02-14T08:03:41;96114.00;;;3.25;87.88
24280;BME280;12395;42.808;23.408;2023-02-14T08:06:10;96131.25;;;3.27;86.98
24280;BME280;12395;42.808;23.408;2023-02-14T08:08:36;96117.72;;;3.32;86.43
24280;BME280;12395;42.808;23.408;2023-02-14T08:11:02;96109.78;;;3.43;85.30
24280;BME280;12395;42.808;23.408;2023-02-14T08:13:27;96115.88;;;3.62;85.54
24280;BME280;12395;42.808;23.408;2023-02-14T08:15:53;96131.75;;;3.70;85.54
24280;BME280;12395;42.808;23.408;2023-02-14T08:18:35;96137.69;;;3.72;83.98
24280;BME280;12395;42.808;23.408;2023-02-14T08:21:02;96140.44;;;3.71;83.91
24280;BME280;12395;42.808;23.408;2023-02-14T08:23:28;96137.69;;;3.72;84.33
24280;BME280;12395;42.808;23.408;2023-02-14T08:25:53;96133.72;;;3.78;83.97
24280;BME280;12395;42.808;23.408;2023-02-14T08:28:19;96129.28;;;3.69;84.75
24280;BME280;12395;42.808;23.408;2023-02-14T08:30:45;96133.81;;;3.67;85.41
24280;BME280;12395;42.808;23.408;2023-02-14T08:33:10;96126.50;;;3.61;85.17
24280;BME280;12395;42.808;23.408;2023-02-14T08:35:37;96123.78;;;3.72;86.22
24280;BME280;12395;42.808;23.408;2023-02-14T08:38:03;96127.50;;;3.69;87.67
24280;BME280;12395;42.808;23.408;2023-02-14T08:40:28;96140.16;;;3.64;88.02
24280;BME280;12395;42.808;23.408;2023-02-14T08:42:54;96132.63;;;3.80;87.64
24280;BME280;12395;42.808;23.408;2023-02-14T08:45:20;96123.19;;;3.68;86.21
24280;BME280;12395;42.808;23.408;2023-02-14T08:47:46;96136.34;;;3.78;85.87
24280;BME280;12395;42.808;23.408;2023-02-14T08:50:14;96134.13;;;3.73;84.98
24280;BME280;12395;42.808;23.408;2023-02-14T08:52:41;96123.88;;;3.61;85.06
24280;BME280;12395;42.808;23.408;2023-02-14T08:55:08;96128.97;;;3.62;85.75
24280;BME280;12395;42.808;23.408;2023-02-14T08:57:34;96122.53;;;3.76;85.63
24280;BME280;12395;42.808;23.408;2023-02-14T08:59:59;96130.00;;;4.00;85.01
24280;BME280;12395;42.808;23.408;2023-02-14T09:02:25;96125.03;;;4.16;83.50
24280;BME280;12395;42.808;23.408;2023-02-14T09:04:50;96111.94;;;4.06;83.65
24280;BME280;12395;42.808;23.408;2023-02-14T09:07:15;96112.88;;;4.05;83.55
24280;BME280;12395;42.808;23.408;2023-02-14T09:09:41;96111.63;;;4.09;83.23
24280;BME280;12395;42.808;23.408;2023-02-14T09:12:07;96099.09;;;4.13;83.22
24280;BME280;12395;42.808;23.408;2023-02-14T09:14:35;96134.41;;;3.99;84.25
24280;BME280;12395;42.808;23.408;2023-02-14T09:17:01;96114.69;;;3.95;84.34
24280;BME280;12395;42.808;23.408;2023-02-14T09:19:32;96118.09;;;3.76;84.47
24280;BME280;12395;42.808;23.408;2023-02-14T09:21:58;96124.19;;;3.77;84.28
24280;BME280;12395;42.808;23.408;2023-02-14T09:24:24;96123.06;;;3.60;85.17
24280;BME280;12395;42.808;23.408;2023-02-14T09:26:51;96115.75;;;3.54;86.92
24280;BME280;12395;42.808;23.408;2023-02-14T09:29:16;96101.06;;;3.42;87.69
24280;BME280;12395;42.808;23.408;2023-02-14T09:31:42;96129.94;;;3.52;88.05
24280;BME280;12395;42.808;23.408;2023-02-14T09:34:07;96112.97;;;3.56;87.76
24280;BME280;12395;42.808;23.408;2023-02-14T09:36:51;96110.63;;;3.62;87.02
24280;BME280;12395;42.808;23.408;2023-02-14T09:39:36;96127.75;;;3.57;86.94
24280;BME280;12395;42.808;23.408;2023-02-14T09:44:43;96113.06;;;3.45;87.00
24280;BME280;12395;42.808;23.408;2023-02-14T09:49:44;96098.75;;;3.49;87.68
24280;BME280;12395;42.808;23.408;2023-02-14T09:52:12;96094.91;;;3.53;87.35
24280;BME280;12395;42.808;23.408;2023-02-14T09:54:41;96110.34;;;3.56;86.93
24280;BME280;12395;42.808;23.408;2023-02-14T10:00:18;96113.53;;;3.69;86.97
24280;BME280;12395;42.808;23.408;2023-02-14T10:05:14;96106.38;;;3.61;85.65
24280;BME280;12395;42.808;23.408;2023-02-14T10:13:12;96098.25;;;3.74;85.21
24280;BME280;12395;42.808;23.408;2023-02-14T10:15:43;96084.88;;;3.86;85.40
24280;BME280;12395;42.808;23.408;2023-02-14T10:20:45;96074.25;;;3.88;82.90
24280;BME280;12395;42.808;23.408;2023-02-14T10:24:13;96092.75;;;4.06;82.96
24280;BME280;12395;42.808;23.408;2023-02-14T10:28:41;96075.50;;;4.03;82.48
24280;BME280;12395;42.808;23.408;2023-02-14T10:37:07;96081.16;;;4.08;83.06
24280;BME280;12395;42.808;23.408;2023-02-14T10:45:24;96084.03;;;4.05;83.63
24280;BME280;12395;42.808;23.408;2023-02-14T10:55:48;96069.44;;;3.74;85.86
24280;BME280;12395;42.808;23.408;2023-02-14T10:58:18;96063.19;;;3.75;85.86
24280;BME280;12395;42.808;23.408;2023-02-14T11:01:01;96060.16;;;3.79;85.60
24280;BME280;12395;42.808;23.408;2023-02-14T11:03:28;96070.94;;;3.96;85.52
24280;BME280;12395;42.808;23.408;2023-02-14T11:05:54;96071.06;;;4.04;85.30
24280;BME280;12395;42.808;23.408;2023-02-14T11:08:36;96079.91;;;4.12;84.27
24280;BME280;12395;42.808;23.408;2023-02-14T11:11:10;96055.31;;;4.13;83.71
24280;BME280;12395;42.808;23.408;2023-02-14T11:13:39;96066.53;;;4.06;83.89
24280;BME280;12395;42.808;23.408;2023-02-14T11:16:08;96071.47;;;4.09;84.25
24280;BME280;12395;42.808;23.408;2023-02-14T11:18:36;96053.69;;;4.03;83.75
24280;BME280;12395;42.808;23.408;2023-02-14T11:23:43;96057.13;;;4.03;83.80
24280;BME280;12395;42.808;23.408;2023-02-14T11:28:53;96043.91;;;3.95;84.28
24280;BME280;12395;42.808;23.408;2023-02-14T11:31:31;96057.81;;;4.05;82.92
24280;BME280;12395;42.808;23.408;2023-02-14T11:33:58;96048.69;;;4.09;81.64
24280;BME280;12395;42.808;23.408;2023-02-14T11:36:24;96057.41;;;4.00;80.29
24280;BME280;12395;42.808;23.408;2023-02-14T11:39:11;96049.69;;;3.89;81.39
24280;BME280;12395;42.808;23.408;2023-02-14T11:41:54;96041.81;;;3.79;81.83
24280;BME280;12395;42.808;23.408;2023-02-14T11:44:23;96035.06;;;3.77;82.07
24280;BME280;12395;42.808;23.408;2023-02-14T11:46:53;96037.81;;;3.66;81.66
24280;BME280;12395;42.808;23.408;2023-02-14T11:49:34;96042.53;;;3.72;82.12
24280;BME280;12395;42.808;23.408;2023-02-14T11:52:18;96035.63;;;3.80;81.29
24280;BME280;12395;42.808;23.408;2023-02-14T11:54:54;96057.84;;;3.86;81.00
24280;BME280;12395;42.808;23.408;2023-02-14T11:57:39;96026.81;;;3.72;81.08
24280;BME280;12395;42.808;23.408;2023-02-14T12:00:25;96025.69;;;3.84;81.09
24280;BME280;12395;42.808;23.408;2023-02-14T12:02:52;96026.78;;;3.81;80.98
24280;BME280;12395;42.808;23.408;2023-02-14T12:05:30;96006.50;;;3.83;81.06
24280;BME280;12395;42.808;23.408;2023-02-14T12:08:00;96013.13;;;3.97;80.61
24280;BME280;12395;42.808;23.408;2023-02-14T12:10:28;96008.44;;;3.81;80.59
24280;BME280;12395;42.808;23.408;2023-02-14T12:15:37;96025.66;;;4.03;79.39
24280;BME280;12395;42.808;23.408;2023-02-14T12:21:26;96012.66;;;4.11;79.51
24280;BME280;12395;42.808;23.408;2023-02-14T12:29:35;95999.69;;;4.19;78.10
24280;BME280;12395;42.808;23.408;2023-02-14T12:32:20;95995.53;;;4.26;77.72
24280;BME280;12395;42.808;23.408;2023-02-14T12:34:46;95991.38;;;4.33;76.80
24280;BME280;12395;42.808;23.408;2023-02-14T12:40:17;96005.94;;;4.55;76.36
24280;BME280;12395;42.808;23.408;2023-02-14T12:43:02;95999.59;;;4.57;75.75
24280;BME280;12395;42.808;23.408;2023-02-14T12:51:31;96001.44;;;4.75;74.23
24280;BME280;12395;42.808;23.408;2023-02-14T12:57:04;95991.41;;;4.88;73.77
24280;BME280;12395;42.808;23.408;2023-02-14T12:59:46;95987.44;;;4.84;73.59
24280;BME280;12395;42.808;23.408;2023-02-14T13:08:05;95982.19;;;4.84;72.74
24280;BME280;12395;42.808;23.408;2023-02-14T13:16:26;95976.97;;;4.47;74.51
24280;BME280;12395;42.808;23.408;2023-02-14T13:18:59;95982.22;;;4.47;74.55
24280;BME280;12395;42.808;23.408;2023-02-14T13:21:30;95986.22;;;4.41;74.88
24280;BME280;12395;42.808;23.408;2023-02-14T13:24:08;95983.19;;;4.46;75.31
24280;BME280;12395;42.808;23.408;2023-02-14T13:26:37;95968.16;;;4.38;75.06
24280;BME280;12395;42.808;23.408;2023-02-14T13:29:13;95971.03;;;4.45;74.59
24280;BME280;12395;42.808;23.408;2023-02-14T13:31:40;95953.81;;;4.33;74.82
24280;BME280;12395;42.808;23.408;2023-02-14T13:36:38;95945.09;;;4.32;75.86
24280;BME280;12395;42.808;23.408;2023-02-14T13:39:04;95964.81;;;4.46;75.05
24280;BME280;12395;42.808;23.408;2023-02-14T13:41:30;95966.59;;;4.45;74.77
24280;BME280;12395;42.808;23.408;2023-02-14T13:43:57;95962.72;;;4.49;74.88
24280;BME280;12395;42.808;23.408;2023-02-14T13:49:12;95980.06;;;4.69;74.55
24280;BME280;12395;42.808;23.408;2023-02-14T13:51:49;95994.25;;;4.77;75.03
24280;BME280;12395;42.808;23.408;2023-02-14T13:56:57;95975.84;;;4.49;74.75
24280;BME280;12395;42.808;23.408;2023-02-14T13:59:31;95978.44;;;4.59;75.23
24280;BME280;12395;42.808;23.408;2023-02-14T14:04:51;95991.41;;;4.60;75.53
24280;BME280;12395;42.808;23.408;2023-02-14T14:07:25;95983.53;;;4.60;75.46
24280;BME280;12395;42.808;23.408;2023-02-14T14:09:58;95979.56;;;4.56;75.37
24280;BME280;12395;42.808;23.408;2023-02-14T14:17:33;95975.81;;;4.59;75.52
24280;BME280;12395;42.808;23.408;2023-02-14T14:20:00;95972.75;;;4.63;76.03
24280;BME280;12395;42.808;23.408;2023-02-14T14:22:26;95959.38;;;4.57;75.25
24280;BME280;12395;42.808;23.408;2023-02-14T14:24:55;95963.13;;;4.54;75.66
24280;BME280;12395;42.808;23.408;2023-02-14T14:27:34;95961.44;;;4.63;76.20
24280;BME280;12395;42.808;23.408;2023-02-14T14:30:26;95953.03;;;4.59;76.19
24280;BME280;12395;42.808;23.408;2023-02-14T14:32:53;95954.97;;;4.57;76.52
24280;BME280;12395;42.808;23.408;2023-02-14T14:35:23;95956.59;;;4.58;76.43
24280;BME280;12395;42.808;23.408;2023-02-14T14:37:55;95955.94;;;4.56;77.03
24280;BME280;12395;42.808;23.408;2023-02-14T14:42:50;95947.13;;;4.48;77.73
24280;BME280;12395;42.808;23.408;2023-02-14T14:45:34;95944.25;;;4.41;77.83
24280;BME280;12395;42.808;23.408;2023-02-14T14:48:07;95939.44;;;4.37;78.23
24280;BME280;12395;42.808;23.408;2023-02-14T14:50:34;95950.59;;;4.39;78.39
24280;BME280;12395;42.808;23.408;2023-02-14T14:53:02;95942.91;;;4.28;78.41
24280;BME280;12395;42.808;23.408;2023-02-14T14:55:30;95953.13;;;4.31;78.56
24280;BME280;12395;42.808;23.408;2023-02-14T14:57:59;95947.59;;;4.34;78.67
24280;BME280;12395;42.808;23.408;2023-02-14T15:00:36;95955.72;;;4.40;78.92
24280;BME280;12395;42.808;23.408;2023-02-14T15:03:13;95951.63;;;4.28;78.91
24280;BME280;12395;42.808;23.408;2023-02-14T15:05:46;95961.00;;;4.31;79.47
24280;BME280;12395;42.808;23.408;2023-02-14T15:13:39;95962.50;;;4.33;78.80
24280;BME280;12395;42.808;23.408;2023-02-14T15:16:26;95961.00;;;4.31;79.54
24280;BME280;12395;42.808;23.408;2023-02-14T15:18:56;95960.47;;;4.27;78.99
24280;BME280;12395;42.808;23.408;2023-02-14T15:21:22;95959.22;;;4.22;79.00
24280;BME280;12395;42.808;23.408;2023-02-14T15:23:47;95973.84;;;4.24;79.49
24280;BME280;12395;42.808;23.408;2023-02-14T15:26:29;95968.34;;;4.27;79.36
24280;BME280;12395;42.808;23.408;2023-02-14T15:29:00;95965.84;;;4.26;79.56
24280;BME280;12395;42.808;23.408;2023-02-14T15:31:29;95967.34;;;4.28;79.23
24280;BME280;12395;42.808;23.408;2023-02-14T15:33:57;95962.53;;;4.24;79.76